sensor_id;sensor_type;location;lat;lon;timestamp;P1;durP1;ratioP1;P2;durP2;ratioP2
61527;SDS011;47395;42.032;-8.634;2023-06-14T00:01:17;7.93;;;5.40;;
61527;SDS011;47395;42.032;-8.634;2023-06-14T00:03:20;10.77;;;5.28;;
61527;SDS011;47395;42.032;-8.634;2023-06-14T00:05:22;6.47;;;5.47;;
61527;SDS011;47395;42.032;-8.634;2023-06-14T00:07:33;11.43;;;6.05;;
61527;SDS011;47395;42.032;-8.634;2023-06-14T00:09:35;16.77;;;5.18;;
61527;SDS011;47395;42.032;-8.634;2023-06-14T00:11:36;8.15;;;5.57;;
61527;SDS011;47395;42.032;-8.634;2023-06-14T00:13:36;7.78;;;5.75;;
61527;SDS011;47395;42.032;-8.634;2023-06-14T00:15:37;10.25;;;5.05;;
61527;SDS011;47395;42.032;-8.634;2023-06-14T00:17:38;10.23;;;5.93;;
61527;SDS011;47395;42.032;-8.634;2023-06-14T00:19:40;10.30;;;6.00;;
61527;SDS011;47395;42.032;-8.634;2023-06-14T00:21:41;8.43;;;5.70;;
61527;SDS011;47395;42.032;-8.634;2023-06-14T00:23:42;12.48;;;5.72;;
61527;SDS011;47395;42.032;-8.634;2023-06-14T00:25:42;7.55;;;5.72;;
61527;SDS011;47395;42.032;-8.634;2023-06-14T00:27:43;7.38;;;5.32;;
61527;SDS011;47395;42.032;-8.634;2023-06-14T00:29:44;6.90;;;5.95;;
61527;SDS011;47395;42.032;-8.634;2023-06-14T00:31:45;8.52;;;5.47;;
61527;SDS011;47395;42.032;-8.634;2023-06-14T00:33:46;6.47;;;5.65;;
61527;SDS011;47395;42.032;-8.634;2023-06-14T00:35:47;8.07;;;6.07;;
61527;SDS011;47395;42.032;-8.634;2023-06-14T00:37:48;8.38;;;5.65;;
61527;SDS011;47395;42.032;-8.634;2023-06-14T00:39:49;10.55;;;6.78;;
61527;SDS011;47395;42.032;-8.634;2023-06-14T00:41:50;6.60;;;6.03;;
61527;SDS011;47395;42.032;-8.634;2023-06-14T00:43:50;9.82;;;6.38;;
61527;SDS011;47395;42.032;-8.634;2023-06-14T00:45:52;13.82;;;6.07;;
61527;SDS011;47395;42.032;-8.634;2023-06-14T00:47:53;6.82;;;6.22;;
61527;SDS011;47395;42.032;-8.634;2023-06-14T00:49:57;6.22;;;5.57;;
61527;SDS011;47395;42.032;-8.634;2023-06-14T00:52:00;10.40;;;6.47;;
61527;SDS011;47395;42.032;-8.634;2023-06-14T00:54:02;8.35;;;6.47;;
61527;SDS011;47395;42.032;-8.634;2023-06-14T00:56:03;8.88;;;6.35;;
61527;SDS011;47395;42.032;-8.634;2023-06-14T00:58:04;10.23;;;5.88;;
61527;SDS011;47395;42.032;-8.634;2023-06-14T01:00:06;9.15;;;5.88;;
61527;SDS011;47395;42.032;-8.634;2023-06-14T01:02:10;10.25;;;7.07;;
61527;SDS011;47395;42.032;-8.634;2023-06-14T01:04:12;13.57;;;6.05;;
61527;SDS011;47395;42.032;-8.634;2023-06-14T01:06:24;13.98;;;6.80;;
61527;SDS011;47395;42.032;-8.634;2023-06-14T01:10:52;6.75;;;5.28;;
61527;SDS011;47395;42.032;-8.634;2023-06-14T01:13:40;7.07;;;5.57;;
61527;SDS011;47395;42.032;-8.634;2023-06-14T01:15:42;6.18;;;5.45;;
61527;SDS011;47395;42.032;-8.634;2023-06-14T01:17:44;7.45;;;5.63;;
61527;SDS011;47395;42.032;-8.634;2023-06-14T01:19:46;13.60;;;5.75;;
61527;SDS011;47395;42.032;-8.634;2023-06-14T01:21:48;6.15;;;5.65;;
61527;SDS011;47395;42.032;-8.634;2023-06-14T01:23:51;5.93;;;5.45;;
61527;SDS011;47395;42.032;-8.634;2023-06-14T01:25:53;11.45;;;4.88;;
61527;SDS011;47395;42.032;-8.634;2023-06-14T01:27:56;8.32;;;5.45;;
61527;SDS011;47395;42.032;-8.634;2023-06-14T01:30:00;8.48;;;5.22;;
61527;SDS011;47395;42.032;-8.634;2023-06-14T01:32:02;8.07;;;5.25;;
61527;SDS011;47395;42.032;-8.634;2023-06-14T01:34:07;6.63;;;5.30;;
61527;SDS011;47395;42.032;-8.634;2023-06-14T01:36:08;6.07;;;5.47;;
61527;SDS011;47395;42.032;-8.634;2023-06-14T01:38:10;8.82;;;5.07;;
61527;SDS011;47395;42.032;-8.634;2023-06-14T01:40:14;6.50;;;5.13;;
61527;SDS011;47395;42.032;-8.634;2023-06-14T01:42:15;5.50;;;4.53;;
61527;SDS011;47395;42.032;-8.634;2023-06-14T01:44:17;5.18;;;4.78;;
61527;SDS011;47395;42.032;-8.634;2023-06-14T01:46:19;5.82;;;4.82;;
61527;SDS011;47395;42.032;-8.634;2023-06-14T01:48:20;6.60;;;5.35;;
61527;SDS011;47395;42.032;-8.634;2023-06-14T01:50:22;7.90;;;5.20;;
61527;SDS011;47395;42.032;-8.634;2023-06-14T01:52:22;6.82;;;5.13;;
61527;SDS011;47395;42.032;-8.634;2023-06-14T01:54:24;6.07;;;5.43;;
61527;SDS011;47395;42.032;-8.634;2023-06-14T01:56:26;5.53;;;5.07;;
61527;SDS011;47395;42.032;-8.634;2023-06-14T01:58:28;5.97;;;5.47;;
61527;SDS011;47395;42.032;-8.634;2023-06-14T02:00:28;11.40;;;5.40;;
61527;SDS011;47395;42.032;-8.634;2023-06-14T02:02:30;10.85;;;4.85;;
61527;SDS011;47395;42.032;-8.634;2023-06-14T02:04:34;5.43;;;4.93;;
61527;SDS011;47395;42.032;-8.634;2023-06-14T02:06:35;5.93;;;5.07;;
61527;SDS011;47395;42.032;-8.634;2023-06-14T02:08:36;9.00;;;5.07;;
61527;SDS011;47395;42.032;-8.634;2023-06-14T02:10:36;7.30;;;5.03;;
61527;SDS011;47395;42.032;-8.634;2023-06-14T02:12:37;9.60;;;4.97;;
61527;SDS011;47395;42.032;-8.634;2023-06-14T02:14:39;12.65;;;4.78;;
61527;SDS011;47395;42.032;-8.634;2023-06-14T02:16:40;7.15;;;4.85;;
61527;SDS011;47395;42.032;-8.634;2023-06-14T02:18:40;16.40;;;5.00;;
61527;SDS011;47395;42.032;-8.634;2023-06-14T02:20:41;9.85;;;5.68;;
61527;SDS011;47395;42.032;-8.634;2023-06-14T02:22:42;7.13;;;5.43;;
61527;SDS011;47395;42.032;-8.634;2023-06-14T02:24:43;11.45;;;5.32;;
61527;SDS011;47395;42.032;-8.634;2023-06-14T02:26:44;7.57;;;5.68;;
61527;SDS011;47395;42.032;-8.634;2023-06-14T02:28:49;10.95;;;5.03;;
61527;SDS011;47395;42.032;-8.634;2023-06-14T02:30:50;8.25;;;5.25;;
61527;SDS011;47395;42.032;-8.634;2023-06-14T02:32:51;5.85;;;5.20;;
61527;SDS011;47395;42.032;-8.634;2023-06-14T02:34:53;10.35;;;5.45;;
61527;SDS011;47395;42.032;-8.634;2023-06-14T02:36:54;14.20;;;5.30;;
61527;SDS011;47395;42.032;-8.634;2023-06-14T02:38:56;5.75;;;5.15;;
61527;SDS011;47395;42.032;-8.634;2023-06-14T02:41:17;5.63;;;5.07;;
61527;SDS011;47395;42.032;-8.634;2023-06-14T02:43:19;10.00;;;5.75;;
61527;SDS011;47395;42.032;-8.634;2023-06-14T02:45:20;7.65;;;5.90;;
61527;SDS011;47395;42.032;-8.634;2023-06-14T02:47:21;8.32;;;5.88;;
61527;SDS011;47395;42.032;-8.634;2023-06-14T02:49:22;11.57;;;5.75;;
61527;SDS011;47395;42.032;-8.634;2023-06-14T02:51:23;5.68;;;5.20;;
61527;SDS011;47395;42.032;-8.634;2023-06-14T02:53:24;9.45;;;5.97;;
61527;SDS011;47395;42.032;-8.634;2023-06-14T02:55:25;9.00;;;5.95;;
61527;SDS011;47395;42.032;-8.634;2023-06-14T02:57:26;8.38;;;5.70;;
61527;SDS011;47395;42.032;-8.634;2023-06-14T02:59:28;9.80;;;5.63;;
61527;SDS011;47395;42.032;-8.634;2023-06-14T03:01:30;6.93;;;5.93;;
61527;SDS011;47395;42.032;-8.634;2023-06-14T03:03:42;10.85;;;6.00;;
61527;SDS011;47395;42.032;-8.634;2023-06-14T03:05:44;7.75;;;6.03;;
61527;SDS011;47395;42.032;-8.634;2023-06-14T03:07:53;7.45;;;6.15;;
61527;SDS011;47395;42.032;-8.634;2023-06-14T03:09:54;10.15;;;6.53;;
61527;SDS011;47395;42.032;-8.634;2023-06-14T03:11:55;8.15;;;6.15;;
61527;SDS011;47395;42.032;-8.634;2023-06-14T03:13:56;11.45;;;7.22;;
61527;SDS011;47395;42.032;-8.634;2023-06-14T03:15:59;7.28;;;6.57;;
61527;SDS011;47395;42.032;-8.634;2023-06-14T03:18:03;9.80;;;6.50;;
61527;SDS011;47395;42.032;-8.634;2023-06-14T03:20:04;8.98;;;6.43;;
61527;SDS011;47395;42.032;-8.634;2023-06-14T03:22:06;15.23;;;7.35;;
61527;SDS011;47395;42.032;-8.634;2023-06-14T03:24:08;8.43;;;6.60;;
61527;SDS011;47395;42.032;-8.634;2023-06-14T03:26:09;12.20;;;6.53;;
61527;SDS011;47395;42.032;-8.634;2023-06-14T03:28:14;8.63;;;6.50;;
61527;SDS011;47395;42.032;-8.634;2023-06-14T03:30:15;10.95;;;6.43;;
61527;SDS011;47395;42.032;-8.634;2023-06-14T03:32:18;7.00;;;6.38;;
61527;SDS011;47395;42.032;-8.634;2023-06-14T03:34:19;11.52;;;6.97;;
61527;SDS011;47395;42.032;-8.634;2023-06-14T03:36:20;8.90;;;5.95;;
61527;SDS011;47395;42.032;-8.634;2023-06-14T03:38:22;7.88;;;5.82;;
61527;SDS011;47395;42.032;-8.634;2023-06-14T03:40:24;11.88;;;6.88;;
61527;SDS011;47395;42.032;-8.634;2023-06-14T03:42:32;9.43;;;6.85;;
61527;SDS011;47395;42.032;-8.634;2023-06-14T03:44:34;7.10;;;6.50;;
61527;SDS011;47395;42.032;-8.634;2023-06-14T03:46:35;12.13;;;6.03;;
61527;SDS011;47395;42.032;-8.634;2023-06-14T03:48:36;6.18;;;5.78;;
61527;SDS011;47395;42.032;-8.634;2023-06-14T03:50:37;9.23;;;6.63;;
61527;SDS011;47395;42.032;-8.634;2023-06-14T03:52:40;6.95;;;6.25;;
61527;SDS011;47395;42.032;-8.634;2023-06-14T03:54:43;9.02;;;5.70;;
61527;SDS011;47395;42.032;-8.634;2023-06-14T03:56:45;6.85;;;6.22;;
61527;SDS011;47395;42.032;-8.634;2023-06-14T03:58:46;8.07;;;6.30;;
61527;SDS011;47395;42.032;-8.634;2023-06-14T04:00:47;6.68;;;5.95;;
61527;SDS011;47395;42.032;-8.634;2023-06-14T04:04:51;9.88;;;6.70;;
61527;SDS011;47395;42.032;-8.634;2023-06-14T04:06:57;10.95;;;6.38;;
61527;SDS011;47395;42.032;-8.634;2023-06-14T04:08:59;8.30;;;6.53;;
61527;SDS011;47395;42.032;-8.634;2023-06-14T04:11:03;13.75;;;6.90;;
61527;SDS011;47395;42.032;-8.634;2023-06-14T04:13:04;6.60;;;6.00;;
61527;SDS011;47395;42.032;-8.634;2023-06-14T04:15:05;9.85;;;6.47;;
61527;SDS011;47395;42.032;-8.634;2023-06-14T04:17:08;7.50;;;6.43;;
61527;SDS011;47395;42.032;-8.634;2023-06-14T04:19:11;7.10;;;6.60;;
61527;SDS011;47395;42.032;-8.634;2023-06-14T04:21:12;8.15;;;6.20;;
61527;SDS011;47395;42.032;-8.634;2023-06-14T04:23:14;9.10;;;7.15;;
61527;SDS011;47395;42.032;-8.634;2023-06-14T04:25:20;12.68;;;6.70;;
61527;SDS011;47395;42.032;-8.634;2023-06-14T04:27:25;12.75;;;6.75;;
61527;SDS011;47395;42.032;-8.634;2023-06-14T04:29:27;7.60;;;6.40;;
61527;SDS011;47395;42.032;-8.634;2023-06-14T04:31:34;12.00;;;7.07;;
61527;SDS011;47395;42.032;-8.634;2023-06-14T04:33:40;10.32;;;6.22;;
61527;SDS011;47395;42.032;-8.634;2023-06-14T04:35:45;14.80;;;6.70;;
61527;SDS011;47395;42.032;-8.634;2023-06-14T04:37:48;12.15;;;6.43;;
61527;SDS011;47395;42.032;-8.634;2023-06-14T04:39:49;9.30;;;6.47;;
61527;SDS011;47395;42.032;-8.634;2023-06-14T04:41:52;8.10;;;6.30;;
61527;SDS011;47395;42.032;-8.634;2023-06-14T04:43:57;8.52;;;6.13;;
61527;SDS011;47395;42.032;-8.634;2023-06-14T04:46:04;9.38;;;5.82;;
61527;SDS011;47395;42.032;-8.634;2023-06-14T04:48:06;11.65;;;6.50;;
61527;SDS011;47395;42.032;-8.634;2023-06-14T04:50:07;7.40;;;6.40;;
61527;SDS011;47395;42.032;-8.634;2023-06-14T04:52:09;10.65;;;6.80;;
61527;SDS011;47395;42.032;-8.634;2023-06-14T04:54:15;10.15;;;6.70;;
61527;SDS011;47395;42.032;-8.634;2023-06-14T04:56:17;7.82;;;6.30;;
61527;SDS011;47395;42.032;-8.634;2023-06-14T04:58:18;8.35;;;6.55;;
61527;SDS011;47395;42.032;-8.634;2023-06-14T05:00:19;11.70;;;6.78;;
61527;SDS011;47395;42.032;-8.634;2023-06-14T05:02:21;8.60;;;6.43;;
61527;SDS011;47395;42.032;-8.634;2023-06-14T05:04:24;7.72;;;6.00;;
61527;SDS011;47395;42.032;-8.634;2023-06-14T05:06:26;10.68;;;7.22;;
61527;SDS011;47395;42.032;-8.634;2023-06-14T05:08:27;9.45;;;6.50;;
61527;SDS011;47395;42.032;-8.634;2023-06-14T05:10:29;7.68;;;6.90;;
61527;SDS011;47395;42.032;-8.634;2023-06-14T05:12:30;7.18;;;6.55;;
61527;SDS011;47395;42.032;-8.634;2023-06-14T05:14:32;9.32;;;6.43;;
61527;SDS011;47395;42.032;-8.634;2023-06-14T05:16:32;10.05;;;7.57;;
61527;SDS011;47395;42.032;-8.634;2023-06-14T05:18:33;13.13;;;7.20;;
61527;SDS011;47395;42.032;-8.634;2023-06-14T05:20:35;14.82;;;6.93;;
61527;SDS011;47395;42.032;-8.634;2023-06-14T05:22:40;10.63;;;6.85;;
61527;SDS011;47395;42.032;-8.634;2023-06-14T05:24:41;9.75;;;7.05;;
61527;SDS011;47395;42.032;-8.634;2023-06-14T05:26:42;9.05;;;6.50;;
61527;SDS011;47395;42.032;-8.634;2023-06-14T05:28:44;11.13;;;6.93;;
61527;SDS011;47395;42.032;-8.634;2023-06-14T05:30:45;9.07;;;7.28;;
61527;SDS011;47395;42.032;-8.634;2023-06-14T05:32:46;10.90;;;7.30;;
61527;SDS011;47395;42.032;-8.634;2023-06-14T05:34:47;11.38;;;7.20;;
61527;SDS011;47395;42.032;-8.634;2023-06-14T05:36:48;8.25;;;7.40;;
61527;SDS011;47395;42.032;-8.634;2023-06-14T05:38:49;11.15;;;6.95;;
61527;SDS011;47395;42.032;-8.634;2023-06-14T05:40:51;9.63;;;6.97;;
61527;SDS011;47395;42.032;-8.634;2023-06-14T05:42:51;9.32;;;6.93;;
61527;SDS011;47395;42.032;-8.634;2023-06-14T05:44:52;11.57;;;7.88;;
61527;SDS011;47395;42.032;-8.634;2023-06-14T05:46:53;15.45;;;6.53;;
61527;SDS011;47395;42.032;-8.634;2023-06-14T05:48:56;12.88;;;7.00;;
61527;SDS011;47395;42.032;-8.634;2023-06-14T05:50:56;12.27;;;6.70;;
61527;SDS011;47395;42.032;-8.634;2023-06-14T05:52:57;10.18;;;7.22;;
61527;SDS011;47395;42.032;-8.634;2023-06-14T05:54:58;9.50;;;6.80;;
61527;SDS011;47395;42.032;-8.634;2023-06-14T05:57:00;13.23;;;7.47;;
61527;SDS011;47395;42.032;-8.634;2023-06-14T05:59:01;8.10;;;6.97;;
61527;SDS011;47395;42.032;-8.634;2023-06-14T06:01:02;13.50;;;7.20;;
61527;SDS011;47395;42.032;-8.634;2023-06-14T06:03:03;8.88;;;7.28;;
61527;SDS011;47395;42.032;-8.634;2023-06-14T06:05:05;15.02;;;6.97;;
61527;SDS011;47395;42.032;-8.634;2023-06-14T06:07:06;17.05;;;7.18;;
61527;SDS011;47395;42.032;-8.634;2023-06-14T06:09:09;8.55;;;6.28;;
61527;SDS011;47395;42.032;-8.634;2023-06-14T06:11:10;8.93;;;6.35;;
61527;SDS011;47395;42.032;-8.634;2023-06-14T06:13:11;8.10;;;6.80;;
61527;SDS011;47395;42.032;-8.634;2023-06-14T06:15:12;15.95;;;6.88;;
61527;SDS011;47395;42.032;-8.634;2023-06-14T06:17:13;9.52;;;6.78;;
61527;SDS011;47395;42.032;-8.634;2023-06-14T06:19:14;10.05;;;7.30;;
61527;SDS011;47395;42.032;-8.634;2023-06-14T06:21:15;9.23;;;6.55;;
61527;SDS011;47395;42.032;-8.634;2023-06-14T06:23:16;13.50;;;7.30;;
61527;SDS011;47395;42.032;-8.634;2023-06-14T06:25:17;11.50;;;6.75;;
61527;SDS011;47395;42.032;-8.634;2023-06-14T06:27:18;6.68;;;6.15;;
61527;SDS011;47395;42.032;-8.634;2023-06-14T06:29:20;11.45;;;6.95;;
61527;SDS011;47395;42.032;-8.634;2023-06-14T06:31:21;12.43;;;7.15;;
61527;SDS011;47395;42.032;-8.634;2023-06-14T06:33:22;9.23;;;7.18;;
61527;SDS011;47395;42.032;-8.634;2023-06-14T06:35:23;9.90;;;7.68;;
61527;SDS011;47395;42.032;-8.634;2023-06-14T06:37:25;11.30;;;7.68;;
61527;SDS011;47395;42.032;-8.634;2023-06-14T06:39:25;7.47;;;6.72;;
61527;SDS011;47395;42.032;-8.634;2023-06-14T06:41:26;11.50;;;6.60;;
61527;SDS011;47395;42.032;-8.634;2023-06-14T06:43:27;13.68;;;7.15;;
61527;SDS011;47395;42.032;-8.634;2023-06-14T06:45:31;14.23;;;6.60;;
61527;SDS011;47395;42.032;-8.634;2023-06-14T06:47:32;7.63;;;6.70;;
61527;SDS011;47395;42.032;-8.634;2023-06-14T06:49:32;13.18;;;7.00;;
61527;SDS011;47395;42.032;-8.634;2023-06-14T06:51:34;11.35;;;6.72;;
61527;SDS011;47395;42.032;-8.634;2023-06-14T06:53:37;8.35;;;7.07;;
61527;SDS011;47395;42.032;-8.634;2023-06-14T06:55:37;11.80;;;6.50;;
61527;SDS011;47395;42.032;-8.634;2023-06-14T06:57:38;17.70;;;7.25;;
61527;SDS011;47395;42.032;-8.634;2023-06-14T06:59:39;12.85;;;6.75;;
61527;SDS011;47395;42.032;-8.634;2023-06-14T07:01:40;19.30;;;7.07;;
61527;SDS011;47395;42.032;-8.634;2023-06-14T07:03:41;13.77;;;7.10;;
61527;SDS011;47395;42.032;-8.634;2023-06-14T07:05:42;15.38;;;6.80;;
61527;SDS011;47395;42.032;-8.634;2023-06-14T07:07:45;18.45;;;7.65;;
61527;SDS011;47395;42.032;-8.634;2023-06-14T07:09:45;19.35;;;7.63;;
61527;SDS011;47395;42.032;-8.634;2023-06-14T07:11:46;12.88;;;7.47;;
61527;SDS011;47395;42.032;-8.634;2023-06-14T07:13:48;11.88;;;6.05;;
61527;SDS011;47395;42.032;-8.634;2023-06-14T07:15:49;9.80;;;5.78;;
61527;SDS011;47395;42.032;-8.634;2023-06-14T07:17:50;13.23;;;7.22;;
61527;SDS011;47395;42.032;-8.634;2023-06-14T07:19:51;11.57;;;6.25;;
61527;SDS011;47395;42.032;-8.634;2023-06-14T07:21:54;14.60;;;6.45;;
61527;SDS011;47395;42.032;-8.634;2023-06-14T07:23:55;16.85;;;6.53;;
61527;SDS011;47395;42.032;-8.634;2023-06-14T07:25:56;14.68;;;7.55;;
61527;SDS011;47395;42.032;-8.634;2023-06-14T07:27:56;12.02;;;7.15;;
61527;SDS011;47395;42.032;-8.634;2023-06-14T07:29:57;11.07;;;6.97;;
61527;SDS011;47395;42.032;-8.634;2023-06-14T07:31:58;17.77;;;7.32;;
61527;SDS011;47395;42.032;-8.634;2023-06-14T07:33:59;12.80;;;6.68;;
61527;SDS011;47395;42.032;-8.634;2023-06-14T07:36:00;13.00;;;6.97;;
61527;SDS011;47395;42.032;-8.634;2023-06-14T07:38:00;11.50;;;6.50;;
61527;SDS011;47395;42.032;-8.634;2023-06-14T07:40:01;10.00;;;6.22;;
61527;SDS011;47395;42.032;-8.634;2023-06-14T07:42:07;12.20;;;6.18;;
61527;SDS011;47395;42.032;-8.634;2023-06-14T07:44:08;7.63;;;5.75;;
61527;SDS011;47395;42.032;-8.634;2023-06-14T07:46:08;9.32;;;6.35;;
61527;SDS011;47395;42.032;-8.634;2023-06-14T07:48:09;10.98;;;5.90;;
61527;SDS011;47395;42.032;-8.634;2023-06-14T07:50:10;12.85;;;6.80;;
61527;SDS011;47395;42.032;-8.634;2023-06-14T07:52:13;11.05;;;8.02;;
61527;SDS011;47395;42.032;-8.634;2023-06-14T07:54:14;11.80;;;7.20;;
61527;SDS011;47395;42.032;-8.634;2023-06-14T07:56:15;14.10;;;6.85;;
61527;SDS011;47395;42.032;-8.634;2023-06-14T07:58:16;13.52;;;6.32;;
61527;SDS011;47395;42.032;-8.634;2023-06-14T08:00:17;8.98;;;6.10;;
61527;SDS011;47395;42.032;-8.634;2023-06-14T08:02:19;11.18;;;6.28;;
61527;SDS011;47395;42.032;-8.634;2023-06-14T08:04:20;8.27;;;6.47;;
61527;SDS011;47395;42.032;-8.634;2023-06-14T08:06:21;10.07;;;6.65;;
61527;SDS011;47395;42.032;-8.634;2023-06-14T08:08:22;8.45;;;5.75;;
61527;SDS011;47395;42.032;-8.634;2023-06-14T08:10:22;7.00;;;5.95;;
61527;SDS011;47395;42.032;-8.634;2023-06-14T08:12:23;8.23;;;5.97;;
61527;SDS011;47395;42.032;-8.634;2023-06-14T08:14:25;6.43;;;5.80;;
61527;SDS011;47395;42.032;-8.634;2023-06-14T08:16:26;8.57;;;5.55;;
61527;SDS011;47395;42.032;-8.634;2023-06-14T08:18:28;8.55;;;5.85;;
61527;SDS011;47395;42.032;-8.634;2023-06-14T08:20:31;6.13;;;5.55;;
61527;SDS011;47395;42.032;-8.634;2023-06-14T08:22:33;9.65;;;6.60;;
61527;SDS011;47395;42.032;-8.634;2023-06-14T08:24:34;6.32;;;5.72;;
61527;SDS011;47395;42.032;-8.634;2023-06-14T08:26:35;7.20;;;5.43;;
61527;SDS011;47395;42.032;-8.634;2023-06-14T08:28:37;8.80;;;5.40;;
61527;SDS011;47395;42.032;-8.634;2023-06-14T08:30:38;5.40;;;4.47;;
61527;SDS011;47395;42.032;-8.634;2023-06-14T08:32:39;7.13;;;4.93;;
61527;SDS011;47395;42.032;-8.634;2023-06-14T08:34:40;4.25;;;3.85;;
61527;SDS011;47395;42.032;-8.634;2023-06-14T08:36:41;4.07;;;3.75;;
61527;SDS011;47395;42.032;-8.634;2023-06-14T08:38:42;4.75;;;3.88;;
61527;SDS011;47395;42.032;-8.634;2023-06-14T08:40:44;6.97;;;3.33;;
61527;SDS011;47395;42.032;-8.634;2023-06-14T08:42:50;5.25;;;3.08;;
61527;SDS011;47395;42.032;-8.634;2023-06-14T08:44:51;3.15;;;2.80;;
61527;SDS011;47395;42.032;-8.634;2023-06-14T08:46:52;5.15;;;2.83;;
61527;SDS011;47395;42.032;-8.634;2023-06-14T08:48:57;3.08;;;2.83;;
61527;SDS011;47395;42.032;-8.634;2023-06-14T08:50:59;5.28;;;2.92;;
61527;SDS011;47395;42.032;-8.634;2023-06-14T08:53:06;5.28;;;3.20;;
61527;SDS011;47395;42.032;-8.634;2023-06-14T08:55:10;3.67;;;3.22;;
61527;SDS011;47395;42.032;-8.634;2023-06-14T08:57:12;4.35;;;3.00;;
61527;SDS011;47395;42.032;-8.634;2023-06-14T08:59:15;3.45;;;3.15;;
61527;SDS011;47395;42.032;-8.634;2023-06-14T09:01:18;4.13;;;3.05;;
61527;SDS011;47395;42.032;-8.634;2023-06-14T09:03:22;6.60;;;3.22;;
61527;SDS011;47395;42.032;-8.634;2023-06-14T09:05:29;3.55;;;3.15;;
61527;SDS011;47395;42.032;-8.634;2023-06-14T09:07:30;3.30;;;3.10;;
61527;SDS011;47395;42.032;-8.634;2023-06-14T09:09:31;3.78;;;2.92;;
61527;SDS011;47395;42.032;-8.634;2023-06-14T09:11:32;3.17;;;2.75;;
61527;SDS011;47395;42.032;-8.634;2023-06-14T09:13:33;3.28;;;3.10;;
61527;SDS011;47395;42.032;-8.634;2023-06-14T09:15:36;5.38;;;3.20;;
61527;SDS011;47395;42.032;-8.634;2023-06-14T09:17:38;3.55;;;2.88;;
61527;SDS011;47395;42.032;-8.634;2023-06-14T09:19:39;4.97;;;3.28;;
61527;SDS011;47395;42.032;-8.634;2023-06-14T09:21:41;3.60;;;2.92;;
61527;SDS011;47395;42.032;-8.634;2023-06-14T09:23:46;5.00;;;4.07;;
61527;SDS011;47395;42.032;-8.634;2023-06-14T09:25:49;5.30;;;2.83;;
61527;SDS011;47395;42.032;-8.634;2023-06-14T09:27:51;3.63;;;2.60;;
61527;SDS011;47395;42.032;-8.634;2023-06-14T09:29:52;2.67;;;2.47;;
61527;SDS011;47395;42.032;-8.634;2023-06-14T09:31:53;2.72;;;2.20;;
61527;SDS011;47395;42.032;-8.634;2023-06-14T09:33:55;3.20;;;2.55;;
61527;SDS011;47395;42.032;-8.634;2023-06-14T09:35:56;2.60;;;2.45;;
61527;SDS011;47395;42.032;-8.634;2023-06-14T09:37:57;3.50;;;2.58;;
61527;SDS011;47395;42.032;-8.634;2023-06-14T09:39:59;3.13;;;2.70;;
61527;SDS011;47395;42.032;-8.634;2023-06-14T09:42:00;4.53;;;2.70;;
61527;SDS011;47395;42.032;-8.634;2023-06-14T09:44:17;2.50;;;2.30;;
61527;SDS011;47395;42.032;-8.634;2023-06-14T09:46:20;2.88;;;2.20;;
61527;SDS011;47395;42.032;-8.634;2023-06-14T09:48:23;3.13;;;2.50;;
61527;SDS011;47395;42.032;-8.634;2023-06-14T09:50:24;2.90;;;2.30;;
61527;SDS011;47395;42.032;-8.634;2023-06-14T09:52:25;2.33;;;2.22;;
61527;SDS011;47395;42.032;-8.634;2023-06-14T09:54:27;2.53;;;2.30;;
61527;SDS011;47395;42.032;-8.634;2023-06-14T09:56:31;3.65;;;2.40;;
61527;SDS011;47395;42.032;-8.634;2023-06-14T09:58:36;2.70;;;2.50;;
61527;SDS011;47395;42.032;-8.634;2023-06-14T10:00:39;2.65;;;2.38;;
61527;SDS011;47395;42.032;-8.634;2023-06-14T10:02:41;2.33;;;1.85;;
61527;SDS011;47395;42.032;-8.634;2023-06-14T10:04:50;3.22;;;2.33;;
61527;SDS011;47395;42.032;-8.634;2023-06-14T10:07:06;2.83;;;2.70;;
61527;SDS011;47395;42.032;-8.634;2023-06-14T10:09:08;2.40;;;2.30;;
61527;SDS011;47395;42.032;-8.634;2023-06-14T10:11:10;3.05;;;2.47;;
61527;SDS011;47395;42.032;-8.634;2023-06-14T10:13:13;2.55;;;2.40;;
61527;SDS011;47395;42.032;-8.634;2023-06-14T10:15:20;2.78;;;2.58;;
61527;SDS011;47395;42.032;-8.634;2023-06-14T10:17:47;2.25;;;2.05;;
61527;SDS011;47395;42.032;-8.634;2023-06-14T10:19:58;2.95;;;2.22;;
61527;SDS011;47395;42.032;-8.634;2023-06-14T10:22:14;2.88;;;2.67;;
61527;SDS011;47395;42.032;-8.634;2023-06-14T10:24:20;2.53;;;2.33;;
61527;SDS011;47395;42.032;-8.634;2023-06-14T10:26:29;4.68;;;2.40;;
61527;SDS011;47395;42.032;-8.634;2023-06-14T10:28:31;3.15;;;2.92;;
61527;SDS011;47395;42.032;-8.634;2023-06-14T10:30:32;6.22;;;2.72;;
61527;SDS011;47395;42.032;-8.634;2023-06-14T10:32:33;3.65;;;3.40;;
61527;SDS011;47395;42.032;-8.634;2023-06-14T10:34:34;2.88;;;2.50;;
61527;SDS011;47395;42.032;-8.634;2023-06-14T10:36:42;7.10;;;3.00;;
61527;SDS011;47395;42.032;-8.634;2023-06-14T10:38:44;4.65;;;2.80;;
61527;SDS011;47395;42.032;-8.634;2023-06-14T10:40:51;5.20;;;3.20;;
61527;SDS011;47395;42.032;-8.634;2023-06-14T10:45:22;3.03;;;2.78;;
61527;SDS011;47395;42.032;-8.634;2023-06-14T10:47:23;3.17;;;2.97;;
61527;SDS011;47395;42.032;-8.634;2023-06-14T10:49:45;3.25;;;2.90;;
61527;SDS011;47395;42.032;-8.634;2023-06-14T10:51:49;5.72;;;5.18;;
61527;SDS011;47395;42.032;-8.634;2023-06-14T10:53:52;5.00;;;3.78;;
61527;SDS011;47395;42.032;-8.634;2023-06-14T10:55:57;3.83;;;3.53;;
61527;SDS011;47395;42.032;-8.634;2023-06-14T10:58:07;4.60;;;4.10;;
61527;SDS011;47395;42.032;-8.634;2023-06-14T11:00:08;5.43;;;3.67;;
61527;SDS011;47395;42.032;-8.634;2023-06-14T11:02:30;5.15;;;3.22;;
61527;SDS011;47395;42.032;-8.634;2023-06-14T11:04:52;3.47;;;3.20;;
61527;SDS011;47395;42.032;-8.634;2023-06-14T11:06:53;3.40;;;3.10;;
61527;SDS011;47395;42.032;-8.634;2023-06-14T11:12:31;5.43;;;3.63;;
61527;SDS011;47395;42.032;-8.634;2023-06-14T11:14:36;3.70;;;3.40;;
61527;SDS011;47395;42.032;-8.634;2023-06-14T11:16:37;6.63;;;3.75;;
61527;SDS011;47395;42.032;-8.634;2023-06-14T11:18:37;4.35;;;3.85;;
61527;SDS011;47395;42.032;-8.634;2023-06-14T11:20:39;5.82;;;4.40;;
61527;SDS011;47395;42.032;-8.634;2023-06-14T11:22:43;4.10;;;3.50;;
61527;SDS011;47395;42.032;-8.634;2023-06-14T11:24:44;4.70;;;4.10;;
61527;SDS011;47395;42.032;-8.634;2023-06-14T11:26:48;4.72;;;3.45;;
61527;SDS011;47395;42.032;-8.634;2023-06-14T11:28:49;5.47;;;3.58;;
61527;SDS011;47395;42.032;-8.634;2023-06-14T11:30:59;5.43;;;3.40;;
61527;SDS011;47395;42.032;-8.634;2023-06-14T11:33:00;4.72;;;3.13;;
61527;SDS011;47395;42.032;-8.634;2023-06-14T11:35:04;5.85;;;3.15;;
61527;SDS011;47395;42.032;-8.634;2023-06-14T11:37:06;3.08;;;2.88;;
61527;SDS011;47395;42.032;-8.634;2023-06-14T11:39:08;5.55;;;2.92;;
61527;SDS011;47395;42.032;-8.634;2023-06-14T11:41:08;3.58;;;2.65;;
61527;SDS011;47395;42.032;-8.634;2023-06-14T11:43:10;3.00;;;2.80;;
61527;SDS011;47395;42.032;-8.634;2023-06-14T11:45:11;2.88;;;2.67;;
61527;SDS011;47395;42.032;-8.634;2023-06-14T11:47:15;3.20;;;2.90;;
61527;SDS011;47395;42.032;-8.634;2023-06-14T11:49:17;3.10;;;2.88;;
61527;SDS011;47395;42.032;-8.634;2023-06-14T11:51:19;3.72;;;2.88;;
61527;SDS011;47395;42.032;-8.634;2023-06-14T11:53:21;3.22;;;2.92;;
61527;SDS011;47395;42.032;-8.634;2023-06-14T11:55:22;4.05;;;3.20;;
61527;SDS011;47395;42.032;-8.634;2023-06-14T11:57:25;5.82;;;3.90;;
61527;SDS011;47395;42.032;-8.634;2023-06-14T11:59:26;4.07;;;3.72;;
61527;SDS011;47395;42.032;-8.634;2023-06-14T12:01:29;4.20;;;3.90;;
61527;SDS011;47395;42.032;-8.634;2023-06-14T12:03:31;5.05;;;4.10;;
61527;SDS011;47395;42.032;-8.634;2023-06-14T12:05:32;5.63;;;3.95;;
61527;SDS011;47395;42.032;-8.634;2023-06-14T12:07:34;3.63;;;3.42;;
61527;SDS011;47395;42.032;-8.634;2023-06-14T12:09:35;10.05;;;4.00;;
61527;SDS011;47395;42.032;-8.634;2023-06-14T12:11:37;3.55;;;3.25;;
61527;SDS011;47395;42.032;-8.634;2023-06-14T12:13:38;4.65;;;3.70;;
61527;SDS011;47395;42.032;-8.634;2023-06-14T12:15:40;4.10;;;3.80;;